Archival Weather

Dane County Rgnl/Truax Fld

Madison, Wisconsin (KMSN)

Report from: Sunday, April 21, 2024 4:53 AM CDT
Current time: Tuesday, May 21, 2024 11:18 AM CDT

Current weather – Weather history – Daily summaries
Weather forecast

Temperature-1.1°C (30.0°F)
Dew point-5.0°C (23.0°F)
Winds Calm
Visibility10 mi. (16.1 km)
Clouds Sky clear
Altimeter30.14 in.Hg (1021 mB)
Relative humidity75 %
Density altitude-2,190 ft. (-668 m)
Sea-level pressure102.2 kPa (1022 mB, 30.17 in.Hg)
Remarks Fully automated report
System requires maintenance
Automated weather observing station with precipitation discriminator
Flight conditions Visual Meteorological Conditions
Raw dataKMSN 210953Z AUTO 00000KT 10SM CLR M01/M05 A3014 RMK AO2 SLP216 T10111050 $
An error has occurred. This application may no longer respond until reloaded. Reload 🗙